Time;durP1;ratioP1;P1;durP2;ratioP2;P2;SDS_P1;SDS_P2;PMS_P1;PMS_P2;Temp;Humidity;BMP_temperature;BMP_pressure;BME280_temperature;BME280_humidity;BME280_pressure;Samples;Min_cycle;Max_cycle;Signal;HPM_P1;HPM_P2
2021/12/31 00:01:13;;;;;;;3.60;1.17;;;;;;;13.50;83.12;100246.75;5012877;28;20033;-91
2021/12/31 00:03:39;;;;;;;3.33;1.55;;;;;;;13.46;83.45;100261.97;5025606;28;20466;-90
2021/12/31 00:06:05;;;;;;;2.95;1.33;;;;;;;13.54;83.04;100259.56;5019656;28;20029;-90
2021/12/31 00:08:33;;;;;;;3.40;1.10;;;;;;;13.58;82.87;100249.59;5017194;28;20041;-89
2021/12/31 00:10:59;;;;;;;3.55;1.08;;;;;;;13.63;82.75;100233.41;5020451;28;20046;-90
2021/12/31 00:13:29;;;;;;;3.30;1.02;;;;;;;13.65;82.37;100242.88;5021765;28;20029;-90
2021/12/31 00:15:56;;;;;;;2.67;1.15;;;;;;;13.65;82.22;100271.03;5025770;28;20042;-91
2021/12/31 00:18:21;;;;;;;8.05;1.20;;;;;;;13.64;82.38;100243.81;5017544;28;20040;-92
2021/12/31 00:20:47;;;;;;;4.65;1.33;;;;;;;13.67;82.24;100240.94;5011704;28;20034;-91
2021/12/31 00:23:17;;;;;;;2.25;1.00;;;;;;;13.66;82.28;100231.38;5016956;28;20178;-92
2021/12/31 00:25:43;;;;;;;4.43;1.25;;;;;;;13.67;82.13;100242.75;5022149;28;20041;-91
2021/12/31 00:28:12;;;;;;;6.22;1.92;;;;;;;13.69;82.05;100232.94;5024852;28;20348;-92
2021/12/31 00:30:55;;;;;;;;;;;;;;;;;;;;;
2021/12/31 00:33:22;;;;;;;4.93;1.25;;;;;;;13.61;82.36;100246.72;5045766;28;20306;-91
2021/12/31 00:35:48;;;;;;;2.88;1.00;;;;;;;13.58;82.48;100236.44;5030536;28;20068;-91
2021/12/31 00:38:16;;;;;;;2.58;1.00;;;;;;;13.60;82.58;100252.09;5021267;28;20037;-91
2021/12/31 00:40:45;;;;;;;5.80;1.43;;;;;;;13.57;82.69;100247.91;5017148;28;20034;-90
2021/12/31 00:43:21;;;;;;;1.67;0.88;;;;;;;13.55;82.67;100248.03;5023508;28;20052;-92
2021/12/31 00:45:46;;;;;;;7.50;1.30;;;;;;;13.52;83.00;100247.47;5019293;28;20393;-92
2021/12/31 00:48:26;;;;;;;2.00;1.00;;;;;;;13.52;83.04;100242.19;5026178;28;20104;-89
2021/12/31 00:55:10;;;;;;;;;;;;;;;;;;;;;
2021/12/31 01:01:30;;;;;;;4.30;1.10;;;;;;;13.46;83.62;100251.44;4941142;28;20102;-93
2021/12/31 01:04:29;;;;;;;;;;;;;;;;;;;;;
2021/12/31 01:07:42;;;;;;;4.00;1.02;;;;;;;13.31;84.33;100261.38;4951088;28;20039;-93
2021/12/31 01:24:25;;;;;;;;;;;;;;;;;;;;;
2021/12/31 01:37:10;;;;;;;2.20;1.10;;;;;;;13.28;84.05;100248.47;4865893;29;20060;-91
2021/12/31 01:39:36;;;;;;;4.22;1.20;;;;;;;13.28;83.92;100259.00;4875799;29;20461;-90
2021/12/31 01:42:08;;;;;;;4.15;1.08;;;;;;;13.27;84.11;100254.69;4865405;29;20123;-92
2021/12/31 01:44:39;;;;;;;2.97;1.10;;;;;;;13.26;84.15;100258.25;4859462;29;20101;-90
2021/12/31 01:47:17;;;;;;;6.00;1.15;;;;;;;13.30;83.64;100249.16;4871708;29;20060;-91
2021/12/31 01:50:04;;;;;;;3.50;2.17;;;;;;;13.30;83.70;100251.78;4867898;29;20029;-90
2021/12/31 01:52:35;;;;;;;3.35;1.35;;;;;;;13.30;83.82;100257.06;4850209;29;20124;-90
2021/12/31 01:55:16;;;;;;;3.35;1.20;;;;;;;13.31;83.79;100260.53;4875932;29;20033;-90
2021/12/31 01:57:48;;;;;;;5.70;1.25;;;;;;;13.34;83.66;100262.09;4949468;28;20055;-91
2021/12/31 02:00:33;;;;;;;4.38;1.23;;;;;;;13.32;83.78;100260.41;4962556;28;20049;-89
2021/12/31 02:03:25;;;;;;;4.22;1.20;;;;;;;13.26;84.03;100262.69;4961865;28;20035;-90
2021/12/31 02:05:50;;;;;;;3.55;1.38;;;;;;;13.17;84.32;100263.41;4975409;28;20050;-91
2021/12/31 02:08:18;;;;;;;3.88;1.17;;;;;;;13.10;84.74;100280.63;4946145;28;20042;-92
2021/12/31 02:10:49;;;;;;;4.03;1.10;;;;;;;13.05;85.09;100273.94;4967888;28;20054;-91
2021/12/31 02:13:25;;;;;;;4.15;1.30;;;;;;;13.02;85.38;100273.31;4958050;28;20031;-91
2021/12/31 02:15:52;;;;;;;4.90;1.30;;;;;;;13.05;85.42;100273.94;4950028;28;20042;-91
2021/12/31 02:18:18;;;;;;;6.30;1.52;;;;;;;12.99;85.23;100274.38;4958266;29;20036;-91
2021/12/31 02:20:47;;;;;;;2.58;1.10;;;;;;;13.00;85.49;100278.69;4957523;28;20035;-92
2021/12/31 02:23:23;;;;;;;5.05;1.40;;;;;;;13.04;85.13;100284.56;4972975;28;20038;-91
2021/12/31 02:26:10;;;;;;;3.70;1.02;;;;;;;13.05;85.25;100273.06;4954630;28;20042;-91
2021/12/31 02:28:40;;;;;;;4.80;1.02;;;;;;;13.08;84.86;100284.19;4988177;28;20039;-90
2021/12/31 02:31:16;;;;;;;6.85;1.58;;;;;;;13.10;84.92;100280.63;4978593;28;20098;-90
2021/12/31 02:33:49;;;;;;;4.22;1.40;;;;;;;13.09;85.06;100285.06;4978715;28;20022;-90
2021/12/31 02:36:19;;;;;;;4.45;1.40;;;;;;;13.04;85.24;100290.66;4980222;28;20054;-90
2021/12/31 02:38:49;;;;;;;4.53;1.25;;;;;;;12.96;85.53;100289.59;4994917;28;20035;-91
2021/12/31 02:41:15;;;;;;;3.35;1.40;;;;;;;12.85;86.03;100287.75;4995467;28;20065;-91
2021/12/31 02:43:43;;;;;;;3.63;1.58;;;;;;;12.77;86.37;100288.34;4977777;28;20039;-92
2021/12/31 02:46:22;;;;;;;3.33;1.10;;;;;;;12.83;86.26;100285.25;4959491;28;20115;-91
2021/12/31 02:49:01;;;;;;;7.57;1.38;;;;;;;12.82;86.04;100293.25;4941283;28;20026;-91
2021/12/31 02:51:32;;;;;;;7.53;1.35;;;;;;;12.73;86.57;100284.28;4945009;28;20147;-92
2021/12/31 02:54:59;;;;;;;;;;;;;;;;;;;;;
2021/12/31 02:58:06;;;;;;;;;;;;;;;;;;;;;
2021/12/31 03:01:12;;;;;;;;;;;;;;;;;;;;;
2021/12/31 03:04:31;;;;;;;3.30;1.30;;;;;;;12.68;86.75;100289.06;4971444;28;20031;-91
2021/12/31 03:07:07;;;;;;;3.20;1.35;;;;;;;12.69;86.18;100292.53;4977497;28;20039;-91
2021/12/31 03:09:53;;;;;;;;;;;;;;;;;;;;;
2021/12/31 03:12:30;;;;;;;2.75;1.25;;;;;;;12.72;86.33;100281.75;4973009;28;20623;-90
2021/12/31 03:15:14;;;;;;;;;;;;;;;;;;;;;
2021/12/31 03:17:43;;;;;;;5.53;1.45;;;;;;;12.77;85.94;100290.97;4942146;28;20130;-90
2021/12/31 03:20:35;;;;;;;6.30;1.40;;;;;;;12.81;85.85;100292.41;4942538;28;20480;-90
2021/12/31 03:29:16;;;;;;;;;;;;;;;;;;;;;
2021/12/31 03:31:55;;;;;;;4.63;1.35;;;;;;;12.88;85.36;100290.16;4968000;28;20041;-91
2021/12/31 03:34:41;;;;;;;;;;;;;;;;;;;;;
2021/12/31 03:37:18;;;;;;;3.75;1.50;;;;;;;12.95;85.17;100290.53;4945154;28;20160;-92
2021/12/31 03:39:44;;;;;;;3.40;1.45;;;;;;;12.98;85.02;100285.88;4946575;28;20027;-89
2021/12/31 03:42:15;;;;;;;3.03;1.38;;;;;;;12.99;84.99;100287.53;4958246;29;20026;-91
2021/12/31 03:44:49;;;;;;;3.47;1.40;;;;;;;12.95;84.75;100282.66;4946511;29;20090;-91
2021/12/31 03:47:25;;;;;;;9.50;1.95;;;;;;;12.95;85.20;100283.47;4961773;28;20140;-92
2021/12/31 03:49:50;;;;;;;5.03;1.40;;;;;;;12.95;85.10;100286.13;4967911;28;20082;-93
2021/12/31 03:52:24;;;;;;;3.65;1.40;;;;;;;12.93;85.10;100295.06;4957669;28;20034;-92
2021/12/31 03:54:55;;;;;;;2.63;1.50;;;;;;;12.93;85.34;100305.59;4948846;28;20054;-92
2021/12/31 03:57:25;;;;;;;4.82;1.30;;;;;;;13.00;84.75;100301.53;4956879;28;20031;-93
2021/12/31 03:59:51;;;;;;;5.95;1.60;;;;;;;13.05;84.50;100309.91;4955400;28;20109;-89
2021/12/31 04:02:37;;;;;;;3.88;1.38;;;;;;;13.07;84.56;100303.59;4947001;28;20035;-92
2021/12/31 04:05:15;;;;;;;4.18;1.50;;;;;;;13.07;84.35;100315.91;4948443;28;20143;-92
2021/12/31 04:07:44;;;;;;;4.32;1.60;;;;;;;13.04;85.36;100331.94;4972686;28;20058;-91
2021/12/31 04:10:15;;;;;;;3.10;1.23;;;;;;;13.01;85.87;100317.22;4946804;28;20126;-91
2021/12/31 04:16:26;;;;;;;5.50;1.70;;;;;;;12.84;87.45;100301.88;4950097;28;20147;-91
2021/12/31 04:19:34;;;;;;;7.68;1.70;;;;;;;12.79;87.58;100307.50;4959807;28;20556;-92
2021/12/31 04:23:24;;;;;;;;;;;;;;;;;;;;;
2021/12/31 04:26:00;;;;;;;6.65;1.50;;;;;;;12.79;87.03;100304.88;4958051;28;20038;-92
2021/12/31 04:28:30;;;;;;;5.13;1.27;;;;;;;12.81;86.58;100297.69;5017576;28;20034;-90
2021/12/31 04:32:07;;;;;;;;;;;;;;;;;;;;;
2021/12/31 04:35:12;;;;;;;;;;;;;;;;;;;;;
2021/12/31 04:37:55;;;;;;;7.18;1.50;;;;;;;12.90;85.44;100274.25;4932825;29;20364;-91
2021/12/31 04:40:25;;;;;;;4.07;1.30;;;;;;;12.93;85.25;100290.63;4931884;28;20100;-90
2021/12/31 04:43:14;;;;;;;4.65;0.90;;;;;;;12.97;84.88;100297.34;4944975;28;20138;-91
2021/12/31 04:45:47;;;;;;;4.55;1.30;;;;;;;12.97;84.57;100288.63;4928639;29;20039;-91
2021/12/31 04:48:18;;;;;;;5.82;1.45;;;;;;;12.98;84.58;100288.50;4938409;29;20023;-91
2021/12/31 04:55:00;;;;;;;3.72;1.08;;;;;;;13.02;83.86;100279.41;4801554;29;20046;-92
2021/12/31 04:57:30;;;;;;;1.00;0.80;;;;;;;13.03;83.43;100290.78;4859023;29;20037;-91
2021/12/31 04:59:56;;;;;;;2.28;1.00;;;;;;;13.02;83.46;100289.13;4940181;22;20498;-71
2021/12/31 05:02:21;;;;;;;3.92;1.00;;;;;;;13.01;83.05;100288.25;5044521;28;20182;-70
2021/12/31 05:04:47;;;;;;;1.80;0.98;;;;;;;13.04;83.09;100288.03;5045676;28;20513;-71
2021/12/31 05:07:12;;;;;;;4.10;1.10;;;;;;;13.02;82.94;100289.13;5036991;28;20043;-69
2021/12/31 05:09:37;;;;;;;3.75;1.08;;;;;;;13.02;83.00;100291.75;5049212;28;20029;-70
2021/12/31 05:12:04;;;;;;;2.97;0.85;;;;;;;13.02;82.92;100289.13;5047265;28;20147;-69
2021/12/31 05:14:30;;;;;;;1.13;0.60;;;;;;;13.04;82.74;100288.03;5049513;28;20094;-68
2021/12/31 05:16:58;;;;;;;1.48;0.90;;;;;;;13.06;82.73;100295.81;5048718;28;20045;-69
2021/12/31 05:19:23;;;;;;;2.33;1.00;;;;;;;13.03;82.72;100291.63;5066120;28;20166;-71
2021/12/31 05:21:48;;;;;;;3.55;0.90;;;;;;;13.05;82.46;100296.75;5040534;28;20112;-70
2021/12/31 05:24:16;;;;;;;1.35;0.90;;;;;;;13.07;81.97;100300.13;5050613;28;20043;-69
2021/12/31 05:26:43;;;;;;;2.60;1.00;;;;;;;13.05;82.21;100287.09;5047085;28;20041;-70
2021/12/31 05:29:08;;;;;;;1.55;0.95;;;;;;;13.07;81.92;100297.47;5046883;28;20039;-71
2021/12/31 05:31:33;;;;;;;2.80;1.02;;;;;;;13.06;81.95;100298.44;5043057;28;20025;-69
2021/12/31 05:33:59;;;;;;;2.17;1.00;;;;;;;13.13;81.49;100293.56;5048566;28;20116;-67
2021/12/31 05:36:24;;;;;;;2.08;0.82;;;;;;;13.10;80.97;100297.25;5046676;28;20064;-71
2021/12/31 05:38:49;;;;;;;3.97;1.00;;;;;;;13.16;80.43;100291.50;5049535;28;20025;-66
2021/12/31 05:41:15;;;;;;;2.00;0.85;;;;;;;13.15;80.37;100283.72;5046857;28;20041;-70
2021/12/31 05:43:40;;;;;;;4.72;1.10;;;;;;;13.13;80.28;100275.13;5045743;28;20076;-69
2021/12/31 05:46:05;;;;;;;1.83;0.90;;;;;;;13.18;80.07;100283.50;5048477;28;20659;-71
2021/12/31 05:48:32;;;;;;;3.15;1.08;;;;;;;13.18;79.54;100296.66;5049667;28;20078;-70
2021/12/31 05:50:57;;;;;;;5.05;2.08;;;;;;;13.16;79.54;100291.50;5046487;28;20033;-70
2021/12/31 05:53:23;;;;;;;4.43;1.00;;;;;;;13.17;79.29;100293.19;5043874;28;20132;-70
2021/12/31 05:55:48;;;;;;;3.08;1.00;;;;;;;13.20;78.84;100295.59;5048157;28;20638;-69
2021/12/31 05:58:14;;;;;;;4.50;0.90;;;;;;;13.23;78.53;100297.13;5046440;28;20071;-67
2021/12/31 06:00:39;;;;;;;1.67;1.00;;;;;;;13.22;78.78;100291.03;5047153;28;20431;-70
2021/12/31 06:03:05;;;;;;;4.43;1.00;;;;;;;13.23;78.45;100298.00;5045605;28;20662;-68
2021/12/31 06:05:30;;;;;;;2.05;1.05;;;;;;;13.28;77.77;100292.38;5048874;28;20037;-69
2021/12/31 06:07:57;;;;;;;2.38;1.05;;;;;;;13.28;77.81;100301.13;5042148;28;20042;-70
2021/12/31 06:10:24;;;;;;;2.90;1.10;;;;;;;13.32;77.13;100299.94;5039245;28;20458;-68
2021/12/31 06:12:50;;;;;;;5.38;0.98;;;;;;;13.34;77.34;100298.97;5043315;28;20199;-66
2021/12/31 06:15:18;;;;;;;6.13;1.10;;;;;;;13.34;76.84;100301.59;5045995;28;20638;-70
2021/12/31 06:17:44;;;;;;;3.38;1.00;;;;;;;13.36;76.92;100290.00;5037999;28;20029;-69
2021/12/31 06:20:10;;;;;;;4.03;1.23;;;;;;;13.36;76.71;100297.88;5045676;28;20037;-68
2021/12/31 06:22:35;;;;;;;1.85;0.98;;;;;;;13.37;76.53;100290.81;5046158;28;20052;-70
2021/12/31 06:25:00;;;;;;;1.70;1.13;;;;;;;13.36;76.81;100297.88;5047608;28;20037;-72
2021/12/31 06:27:26;;;;;;;2.90;1.60;;;;;;;13.35;76.75;100288.31;5046568;28;20044;-70
2021/12/31 06:29:51;;;;;;;3.88;1.25;;;;;;;13.34;76.87;100291.06;5047698;28;20363;-68
2021/12/31 06:32:16;;;;;;;2.28;1.10;;;;;;;13.34;76.93;100289.25;5042222;28;20029;-70
2021/12/31 06:34:42;;;;;;;1.55;1.02;;;;;;;13.35;76.75;100290.09;5045982;28;20466;-74
2021/12/31 06:37:07;;;;;;;2.08;1.02;;;;;;;13.36;76.71;100303.16;5031265;28;20036;-70
2021/12/31 06:39:35;;;;;;;3.13;1.20;;;;;;;13.36;76.53;100297.88;5046411;28;20142;-71
2021/12/31 06:42:03;;;;;;;2.58;1.10;;;;;;;13.35;76.63;100313.78;5040119;28;20029;-70
2021/12/31 06:44:28;;;;;;;6.25;1.60;;;;;;;13.37;76.43;100322.44;5047641;28;20362;-71
2021/12/31 06:46:54;;;;;;;3.83;1.20;;;;;;;13.38;76.49;100316.19;5047588;28;20039;-70
2021/12/31 06:49:19;;;;;;;2.80;1.15;;;;;;;13.35;76.33;100322.56;5048373;28;20029;-69
2021/12/31 06:51:44;;;;;;;4.15;1.40;;;;;;;13.35;76.47;100321.69;5045168;28;20025;-71
2021/12/31 06:54:09;;;;;;;2.53;1.25;;;;;;;13.35;76.50;100324.31;5042921;28;20021;-71
2021/12/31 06:56:35;;;;;;;4.88;1.38;;;;;;;13.35;76.30;100319.94;5047439;28;20139;-69
2021/12/31 06:59:00;;;;;;;2.25;1.20;;;;;;;13.34;76.63;100326.13;5045406;28;20040;-69
2021/12/31 07:01:25;;;;;;;3.55;1.10;;;;;;;13.32;76.73;100331.53;5045293;28;20685;-70
2021/12/31 07:03:51;;;;;;;6.68;1.50;;;;;;;13.33;76.63;100335.00;5045786;28;20021;-70
2021/12/31 07:06:16;;;;;;;6.22;1.50;;;;;;;13.33;76.60;100327.09;5049116;28;20021;-73
2021/12/31 07:08:42;;;;;;;5.38;1.60;;;;;;;13.35;76.79;100330.47;5034881;28;20029;-72
2021/12/31 07:11:07;;;;;;;4.07;1.40;;;;;;;13.31;76.83;100336.91;5042180;28;20584;-74
2021/12/31 07:13:33;;;;;;;6.85;1.50;;;;;;;13.32;76.58;100336.78;5044274;28;20040;-72
2021/12/31 07:15:58;;;;;;;7.15;3.38;;;;;;;13.31;76.78;100327.22;5053779;28;20190;-71
2021/12/31 07:18:23;;;;;;;3.95;1.30;;;;;;;13.29;76.96;100338.81;5061651;28;20082;-69
2021/12/31 07:20:49;;;;;;;3.53;1.25;;;;;;;13.28;76.87;100331.91;5042243;28;20044;-72
2021/12/31 07:23:18;;;;;;;3.08;1.13;;;;;;;13.28;77.10;100332.72;5045230;28;20089;-70
2021/12/31 07:25:43;;;;;;;5.28;1.23;;;;;;;13.31;77.08;100339.53;5044201;28;20211;-69
2021/12/31 07:28:10;;;;;;;4.70;1.50;;;;;;;13.31;76.89;100336.91;5052739;28;20405;-67
2021/12/31 07:30:37;;;;;;;3.35;1.23;;;;;;;13.30;76.76;100336.06;5069036;28;20024;-69
2021/12/31 07:33:02;;;;;;;4.65;1.30;;;;;;;13.31;76.36;100348.28;5061087;28;20130;-68
2021/12/31 07:35:28;;;;;;;6.30;1.65;;;;;;;13.30;76.85;100351.88;5045821;28;20371;-71
2021/12/31 07:37:55;;;;;;;5.70;1.38;;;;;;;13.26;77.25;100346.97;5046997;28;20041;-68
2021/12/31 07:40:28;;;;;;;4.45;1.20;;;;;;;13.25;77.01;100345.28;5028559;28;20083;-69
2021/12/31 07:42:53;;;;;;;2.60;1.23;;;;;;;13.29;76.86;100354.63;5045584;28;20417;-69
2021/12/31 07:45:20;;;;;;;3.55;1.48;;;;;;;13.27;76.94;100346.00;5040604;28;20031;-69
2021/12/31 07:47:45;;;;;;;5.22;1.35;;;;;;;13.28;76.86;100343.25;5037555;28;20033;-71
2021/12/31 07:50:11;;;;;;;7.00;1.58;;;;;;;13.27;77.03;100354.75;5045132;28;20412;-71
2021/12/31 07:52:37;;;;;;;3.47;1.13;;;;;;;13.28;76.77;100340.63;5042531;28;20130;-70
2021/12/31 07:55:02;;;;;;;5.40;1.63;;;;;;;13.29;76.66;100347.56;5042365;28;20506;-70
2021/12/31 07:57:28;;;;;;;3.25;1.42;;;;;;;13.32;76.58;100343.88;5037570;28;20024;-70
2021/12/31 07:59:53;;;;;;;5.47;1.50;;;;;;;13.36;76.50;100349.72;5038666;28;20041;-68
2021/12/31 08:02:18;;;;;;;4.45;1.40;;;;;;;13.34;76.64;100341.94;5038294;28;20081;-67
2021/12/31 08:04:44;;;;;;;3.90;1.50;;;;;;;13.34;76.52;100341.94;5043947;28;20106;-71
2021/12/31 08:07:09;;;;;;;4.80;1.45;;;;;;;13.36;76.77;100347.94;5040112;28;20068;-71
2021/12/31 08:09:34;;;;;;;6.88;1.50;;;;;;;13.34;76.86;100356.91;5045570;28;20106;-69
2021/12/31 08:11:59;;;;;;;3.67;1.65;;;;;;;13.34;76.77;100349.00;5042420;28;20534;-71
2021/12/31 08:14:25;;;;;;;6.47;1.30;;;;;;;13.32;76.92;100355.22;5043907;28;20122;-69
2021/12/31 08:16:50;;;;;;;7.18;1.88;;;;;;;13.31;76.96;100353.56;5045888;28;20040;-69
2021/12/31 08:19:15;;;;;;;6.00;1.58;;;;;;;13.32;77.03;100349.13;5043368;28;20067;-66
2021/12/31 08:21:40;;;;;;;9.05;2.42;;;;;;;13.29;76.94;100358.09;5044204;28;20118;-67
2021/12/31 08:24:06;;;;;;;4.65;1.70;;;;;;;13.28;76.93;100340.63;5041302;28;20026;-69
2021/12/31 08:26:31;;;;;;;5.97;1.50;;;;;;;13.31;76.81;100343.03;5043382;28;20065;-69
2021/12/31 08:28:56;;;;;;;5.68;1.67;;;;;;;13.31;76.71;100343.03;5058849;28;20036;-70
2021/12/31 08:31:22;;;;;;;4.00;1.50;;;;;;;13.31;76.85;100332.50;5066757;28;20112;-68
2021/12/31 08:33:47;;;;;;;7.13;1.95;;;;;;;13.32;76.96;100335.97;5045323;28;20033;-69
2021/12/31 08:36:12;;;;;;;7.40;1.73;;;;;;;13.35;76.67;100329.59;5040390;28;20021;-69
2021/12/31 08:38:37;;;;;;;4.53;1.90;;;;;;;13.37;76.59;100330.34;5037828;28;20124;-68
2021/12/31 08:41:03;;;;;;;4.68;1.67;;;;;;;13.40;76.41;100327.47;5046714;28;20052;-69
2021/12/31 08:43:28;;;;;;;5.20;1.60;;;;;;;13.43;76.11;100324.59;5044242;28;20040;-69
2021/12/31 08:45:54;;;;;;;5.90;1.60;;;;;;;13.44;75.89;100323.63;5046312;28;20406;-70
2021/12/31 08:48:20;;;;;;;7.15;1.60;;;;;;;13.49;75.64;100326.72;5046273;28;20730;-70
2021/12/31 08:50:46;;;;;;;4.40;1.60;;;;;;;13.52;75.51;100329.13;5039868;28;20036;-70
2021/12/31 08:53:12;;;;;;;5.72;1.73;;;;;;;13.58;75.25;100318.13;5042573;28;20040;-69
2021/12/31 08:55:37;;;;;;;6.03;1.60;;;;;;;13.59;75.25;100305.78;5038426;28;20041;-69
2021/12/31 08:58:02;;;;;;;4.25;1.30;;;;;;;13.60;75.07;100307.44;5042476;28;20037;-71
2021/12/31 09:00:28;;;;;;;4.80;1.60;;;;;;;13.60;75.13;100308.28;5046209;28;20111;-72
2021/12/31 09:02:53;;;;;;;5.43;1.77;;;;;;;13.63;74.68;100313.31;5039715;28;20037;-68
2021/12/31 09:05:19;;;;;;;7.28;2.10;;;;;;;13.65;74.52;100310.56;5040741;28;20549;-68
2021/12/31 09:07:44;;;;;;;4.90;1.60;;;;;;;13.66;74.62;100309.59;5030860;28;20112;-68
2021/12/31 09:10:10;;;;;;;3.17;1.38;;;;;;;13.66;74.29;100305.16;5045260;28;20091;-68
2021/12/31 09:12:37;;;;;;;7.50;1.73;;;;;;;13.66;74.78;100296.44;5037177;28;20485;-69
2021/12/31 09:15:03;;;;;;;3.17;1.30;;;;;;;13.67;74.63;100291.03;5036117;28;20025;-70
2021/12/31 09:17:28;;;;;;;4.32;1.45;;;;;;;13.67;74.53;100293.66;5027850;28;20037;-72
2021/12/31 09:19:54;;;;;;;6.03;1.45;;;;;;;13.69;74.66;100290.91;5036095;28;20043;-66
2021/12/31 09:22:19;;;;;;;4.32;1.40;;;;;;;13.70;74.54;100287.31;5043680;28;20386;-70
2021/12/31 09:24:45;;;;;;;4.50;1.55;;;;;;;13.69;74.71;100294.38;5044865;28;20492;-73
2021/12/31 09:27:11;;;;;;;8.40;1.95;;;;;;;13.67;75.14;100291.03;5053310;28;20025;-70
2021/12/31 09:29:36;;;;;;;4.82;1.80;;;;;;;13.66;74.67;100289.34;5045978;28;20605;-68
2021/12/31 09:32:02;;;;;;;5.20;1.55;;;;;;;13.62;74.89;100293.19;5039469;28;20040;-71
2021/12/31 09:34:27;;;;;;;4.50;1.58;;;;;;;13.54;75.71;100288.53;5046032;28;20032;-71
2021/12/31 09:36:52;;;;;;;4.10;1.40;;;;;;;13.43;76.04;100290.34;5040296;28;20030;-69
2021/12/31 09:39:18;;;;;;;3.95;1.40;;;;;;;13.34;76.41;100281.34;5042620;22;20053;-69
2021/12/31 09:41:43;;;;;;;4.97;1.77;;;;;;;13.30;76.44;100280.75;5003472;28;20045;-66
2021/12/31 09:44:14;;;;;;;3.83;1.60;;;;;;;13.28;76.64;100282.69;5006535;28;20042;-71
2021/12/31 09:46:39;;;;;;;6.90;1.67;;;;;;;13.28;77.23;100268.69;4998122;28;20033;-70
2021/12/31 09:49:04;;;;;;;4.60;1.75;;;;;;;13.28;77.91;100276.59;5000655;28;20408;-71
2021/12/31 09:51:31;;;;;;;4.00;1.67;;;;;;;13.28;77.73;100281.84;5005237;28;20036;-69
2021/12/31 09:53:59;;;;;;;4.18;1.48;;;;;;;13.39;76.50;100273.13;5001196;28;20113;-69
2021/12/31 09:56:25;;;;;;;4.35;1.48;;;;;;;13.46;76.23;100274.28;5004473;28;20030;-71
2021/12/31 09:58:50;;;;;;;3.08;1.48;;;;;;;13.53;75.56;100267.56;5002457;28;20033;-72
2021/12/31 10:01:16;;;;;;;7.55;1.27;;;;;;;13.59;75.76;100264.44;5005790;28;20648;-70
2021/12/31 10:03:53;;;;;;;3.97;1.25;;;;;;;13.67;75.23;100253.28;5009651;28;20084;-70
2021/12/31 10:06:18;;;;;;;3.83;1.35;;;;;;;13.76;74.38;100260.47;5015004;28;20568;-72
2021/12/31 10:08:46;;;;;;;5.03;1.67;;;;;;;13.84;74.45;100255.41;5012110;28;20053;-70
2021/12/31 10:11:12;;;;;;;5.18;1.25;;;;;;;13.93;74.32;100254.66;5010223;28;20041;-71
2021/12/31 10:13:41;;;;;;;11.07;1.70;;;;;;;14.00;73.86;100263.72;5019423;28;20049;-69
2021/12/31 10:16:20;;;;;;;4.72;2.47;;;;;;;14.05;73.00;100260.72;5015338;28;20029;-70
2021/12/31 10:18:47;;;;;;;3.13;1.40;;;;;;;14.13;72.92;100258.31;5020628;28;20179;-72
2021/12/31 10:21:13;;;;;;;3.85;1.55;;;;;;;14.21;72.08;100260.31;5008411;28;20034;-71
2021/12/31 10:23:39;;;;;;;2.60;1.40;;;;;;;14.31;71.77;100249.81;5008024;28;20036;-72
2021/12/31 10:26:14;;;;;;;8.10;1.67;;;;;;;14.40;71.08;100255.19;5014397;28;20064;-70
2021/12/31 10:28:57;;;;;;;3.80;1.30;;;;;;;14.50;69.82;100245.56;5018757;28;20049;-72
2021/12/31 10:31:22;;;;;;;4.50;1.35;;;;;;;14.61;69.83;100249.06;5015169;28;20034;-69
2021/12/31 10:33:49;;;;;;;2.58;1.10;;;;;;;14.69;69.45;100244.84;5017044;28;20021;-71
2021/12/31 10:36:32;;;;;;;4.82;1.20;;;;;;;14.79;69.07;100236.13;5010418;28;20021;-69
2021/12/31 10:38:59;;;;;;;5.25;1.38;;;;;;;14.88;68.68;100222.16;5016601;28;20431;-71
2021/12/31 10:41:25;;;;;;;4.70;1.23;;;;;;;14.95;68.61;100231.22;5021140;28;20056;-70
2021/12/31 10:43:59;;;;;;;3.67;1.27;;;;;;;14.99;68.68;100228.19;5016563;28;20145;-72
2021/12/31 10:46:24;;;;;;;3.50;1.50;;;;;;;15.06;68.65;100223.22;5018409;28;20060;-68
2021/12/31 10:48:54;;;;;;;3.42;1.15;;;;;;;15.02;68.38;100216.53;5018427;28;20026;-69
2021/12/31 10:51:42;;;;;;;6.78;1.55;;;;;;;14.99;69.25;100222.91;5016986;28;20048;-71
2021/12/31 10:54:44;;;;;;;4.57;1.20;;;;;;;14.95;69.68;100228.59;5012450;28;20049;-71
2021/12/31 10:57:10;;;;;;;4.07;1.40;;;;;;;14.90;69.53;100226.31;5012064;28;20528;-71
2021/12/31 10:59:37;;;;;;;4.85;1.45;;;;;;;14.88;70.09;100238.00;5012200;28;20042;-70
2021/12/31 11:02:04;;;;;;;3.50;1.30;;;;;;;14.83;69.89;100227.84;5015778;28;20038;-68
2021/12/31 11:04:32;;;;;;;3.95;1.55;;;;;;;14.83;70.24;100224.34;5007925;28;20041;-72
2021/12/31 11:07:00;;;;;;;6.28;1.45;;;;;;;14.80;70.36;100228.09;5007342;28;20030;-71
2021/12/31 11:09:29;;;;;;;5.03;1.70;;;;;;;14.82;70.51;100226.13;5028785;28;20033;-69
2021/12/31 11:11:57;;;;;;;13.07;2.35;;;;;;;14.85;70.19;100230.34;5015751;28;20029;-71
2021/12/31 11:14:24;;;;;;;6.00;1.60;;;;;;;14.88;69.93;100230.06;5014069;28;20044;-68
2021/12/31 11:16:49;;;;;;;8.27;1.67;;;;;;;14.88;70.11;100222.97;5015525;28;20037;-69
2021/12/31 11:19:16;;;;;;;2.42;1.20;;;;;;;14.87;69.71;100225.75;5011446;28;20045;-71
2021/12/31 11:21:43;;;;;;;5.35;1.83;;;;;;;14.89;69.99;100222.00;5009604;28;20026;-70
2021/12/31 11:24:37;;;;;;;3.42;1.40;;;;;;;14.89;69.69;100231.75;5014011;28;20034;-69
2021/12/31 11:27:31;;;;;;;5.65;1.30;;;;;;;14.89;68.98;100237.03;5010859;28;20056;-72
2021/12/31 11:29:58;;;;;;;8.10;1.77;;;;;;;14.88;69.16;100230.91;5008024;28;20583;-72
2021/12/31 11:32:42;;;;;;;4.38;1.58;;;;;;;14.90;68.56;100228.97;5008486;28;20084;-70
2021/12/31 11:35:57;;;;;;;6.18;1.73;;;;;;;14.88;68.48;100236.19;5009727;28;20033;-69
2021/12/31 11:38:23;;;;;;;8.02;1.90;;;;;;;14.89;68.51;100247.59;5007591;28;20045;-71
2021/12/31 11:41:02;;;;;;;3.97;1.60;;;;;;;14.86;68.11;100230.19;5011492;28;20411;-73
2021/12/31 11:43:29;;;;;;;5.05;1.30;;;;;;;14.84;68.03;100229.50;5005840;28;20149;-72
2021/12/31 11:46:12;;;;;;;7.95;1.50;;;;;;;14.85;67.41;100219.78;5009133;28;20029;-72
2021/12/31 11:48:44;;;;;;;4.57;1.30;;;;;;;14.85;67.77;100233.81;5010347;28;20033;-70
2021/12/31 11:51:34;;;;;;;3.67;1.42;;;;;;;14.85;68.03;100217.97;5011284;28;20033;-68
2021/12/31 11:53:59;;;;;;;7.20;1.25;;;;;;;14.84;67.93;100213.66;5008083;28;20055;-75
2021/12/31 11:59:08;;;;;;;4.90;1.50;;;;;;;14.89;67.13;100208.81;5013103;28;20146;-70
2021/12/31 12:01:36;;;;;;;4.05;1.77;;;;;;;14.88;67.56;100208.94;5014868;28;20033;-73
2021/12/31 12:04:25;;;;;;;5.75;1.65;;;;;;;14.86;67.48;100208.22;5009623;28;20046;-70
2021/12/31 12:07:06;;;;;;;7.20;1.48;;;;;;;14.90;67.15;100201.72;5014943;28;20615;-71
2021/12/31 12:09:37;;;;;;;5.78;1.80;;;;;;;14.87;67.40;100188.78;5013169;28;20123;-71
2021/12/31 12:12:16;;;;;;;4.47;1.48;;;;;;;14.86;67.08;100184.47;5001770;28;20034;-69
2021/12/31 12:14:47;;;;;;;6.57;1.65;;;;;;;14.85;67.77;100173.09;5005633;28;20114;-69
2021/12/31 12:17:17;;;;;;;3.58;1.50;;;;;;;14.83;67.05;100175.03;5007127;28;20733;-69
2021/12/31 12:19:45;;;;;;;6.38;2.10;;;;;;;14.80;68.05;100187.66;5013982;28;20064;-69
2021/12/31 12:22:27;;;;;;;3.55;1.30;;;;;;;14.76;67.87;100181.81;5004124;28;20535;-68
2021/12/31 12:24:54;;;;;;;6.03;1.60;;;;;;;14.73;67.42;100174.97;5006264;28;20037;-71
2021/12/31 12:27:25;;;;;;;4.47;1.40;;;;;;;14.71;67.84;100184.00;5008662;28;20026;-70
2021/12/31 12:29:51;;;;;;;2.75;1.35;;;;;;;14.69;68.09;100178.03;4997208;28;20042;-68
2021/12/31 12:32:29;;;;;;;7.05;1.50;;;;;;;14.64;68.31;100181.03;5009339;28;20083;-68
2021/12/31 12:34:55;;;;;;;7.45;1.95;;;;;;;14.62;68.34;100177.72;5013986;28;20437;-70
2021/12/31 12:37:27;;;;;;;4.18;1.50;;;;;;;14.59;68.28;100164.78;5007845;28;20121;-68
2021/12/31 12:40:00;;;;;;;4.68;1.30;;;;;;;14.55;68.70;100163.38;4996879;28;20490;-69
2021/12/31 12:42:26;;;;;;;5.78;1.70;;;;;;;14.52;68.65;100168.91;5002823;28;20025;-68
2021/12/31 12:45:04;;;;;;;4.38;1.80;;;;;;;14.52;69.05;100168.91;5007329;28;20067;-69
2021/12/31 12:47:29;;;;;;;4.65;1.60;;;;;;;14.48;68.96;100181.47;5007805;28;20088;-68
2021/12/31 12:49:56;;;;;;;3.13;1.50;;;;;;;14.49;69.02;100179.69;5007863;28;20038;-68
2021/12/31 12:52:21;;;;;;;5.55;1.70;;;;;;;14.47;68.99;100179.81;5003827;28;20038;-69